Latest Coastal Weather Observations for Bedout Island

IDW60701

Issued at 12:15 pm WST Wednesday 26 November 2014 (issued every 10 minutes, with the page automatically refreshed every 10 minutes)

About coastal observations | Map of coastal stations | Coastal observations for WA | Marine services | Other Formats
Station Details ID: 004100 Name: BEDOUT ISLAND Lat: -19.59 Lon: 119.10 Height: 8.6 m
Data from the previous 72 hours. | See also: Recent months for locations in Western Australia
Date/Time
WST
Temp

°C
Wind Pressure Rain
since 9am
mm
Weather Cloud Vis
km
Sea
Height
m
Swell
Dir
 
Speed
knots
Gust
knots
hPa Trend Height
m
Period
s
Dir
26/12:00pm 32.2 ENE 17 19 1007.7 - - - - - - - - -
26/11:30am 32.0 ENE 17 20 1008.3 - - - - - - - - -
26/11:00am 32.2 ENE 16 19 1008.8 - - - - - - - - -
26/10:30am 32.1 ENE 15 17 1009.2 - - - - - - - - -
26/10:00am 31.5 ENE 16 18 1009.4 - - - - - - - - -
26/09:30am 31.1 E 19 22 1009.4 - - - - - - - - -
26/09:00am 30.6 E 19 22 1009.3 - - - - - - - - -
26/08:30am 30.5 E 20 23 1009.5 - - - - - - - - -
26/08:00am 29.7 E 20 23 1009.6 - - - - - - - - -
26/07:30am 29.5 E 22 25 1009.8 - - - - - - - - -
26/07:00am 28.8 E 20 24 1009.7 - - - - - - - - -
26/06:30am 28.4 E 22 27 1010.0 - - - - - - - - -
26/06:00am 27.9 ESE 23 27 1009.8 - - - - - - - - -
26/05:30am 27.7 ESE 21 25 1009.5 - - - - - - - - -
26/05:00am 28.0 ESE 24 27 1009.1 - - - - - - - - -
26/04:30am 28.0 ESE 25 30 1008.5 - - - - - - - - -
26/04:00am 28.2 ESE 27 30 1008.1 - - - - - - - - -
26/03:30am 28.4 SE 22 26 1008.2 - - - - - - - - -
26/03:00am 29.1 SE 21 25 1008.0 - - - - - - - - -
26/02:30am 29.3 SE 17 21 1008.3 - - - - - - - - -
26/02:00am 29.5 SE 19 23 1008.3 - - - - - - - - -
26/01:30am 29.4 SE 17 23 1008.5 - - - - - - - - -
26/01:16am 29.3 SE 20 23 1008.6 - - - - - - - - -
26/01:00am 28.6 S 12 14 1008.5 - - - - - - - - -
26/12:30am 28.8 SSE 19 24 1009.4 - - - - - - - - -
26/12:18am 28.5 S 21 26 1009.4 - - - - - - - - -
26/12:00am 28.1 SSW 15 17 1008.1 - - - - - - - - -
 
Date/Time
WST
Temp

°C
Wind Pressure Rain
since 9am
mm
Weather Cloud Vis
km
Sea
Height
m
Swell
Dir
 
Speed
knots
Gust
knots
hPa Trend Height
m
Period
s
Dir
25/11:30pm 27.9 WSW 13 15 1008.0 - - - - - - - - -
25/11:00pm 28.1 SW 15 18 1008.3 - - - - - - - - -
25/10:53pm 27.9 SW 16 19 1008.1 - - - - - - - - -
25/10:30pm 28.1 W 21 25 1007.1 - - - - - - - - -
25/10:00pm 28.1 W 21 24 1007.0 - - - - - - - - -
25/09:30pm 28.2 WNW 20 24 1006.7 - - - - - - - - -
25/09:00pm 28.2 WNW 22 25 1006.4 - - - - - - - - -
25/08:30pm 28.0 WNW 20 23 1006.5 - - - - - - - - -
25/08:00pm 28.1 WNW 18 21 1006.4 - - - - - - - - -
25/07:30pm 28.2 WNW 19 21 1006.2 - - - - - - - - -
25/07:00pm 28.3 WNW 18 21 1005.8 - - - - - - - - -
25/06:30pm 28.4 NW 17 19 1005.7 - - - - - - - - -
25/06:00pm 29.0 NW 18 20 1005.5 - - - - - - - - -
25/05:30pm 29.8 NW 17 19 1005.5 - - - - - - - - -
25/05:00pm 30.6 NW 15 18 1005.4 - - - - - - - - -
25/04:30pm 31.2 NW 15 18 1005.3 - - - - - - - - -
25/04:00pm 31.7 NW 14 16 1005.3 - - - - - - - - -
25/03:30pm 32.2 NW 13 15 1005.6 - - - - - - - - -
25/03:00pm 32.7 NW 12 14 1006.0 - - - - - - - - -
25/02:30pm 32.5 NW 11 13 1006.5 - - - - - - - - -
25/02:00pm 32.7 NW 10 12 1006.9 - - - - - - - - -
25/01:30pm 32.7 NW 10 11 1007.0 - - - - - - - - -
25/01:00pm 32.9 NW 11 13 1007.2 - - - - - - - - -
25/12:30pm 32.8 NW 11 13 1007.4 - - - - - - - - -
25/12:00pm 32.6 NW 11 13 1007.6 - - - - - - - - -
25/11:30am 32.1 NW 10 11 1008.3 - - - - - - - - -
25/11:00am 32.5 WNW 8 9 1008.6 - - - - - - - - -
25/10:30am 33.0 W 7 7 1008.8 - - - - - - - - -
25/10:00am 33.3 W 7 8 1009.0 - - - - - - - - -
25/09:30am 33.0 WSW 8 9 1009.0 - - - - - - - - -
25/09:00am 32.0 WSW 9 10 1008.8 - - - - - - - - -
25/08:30am 32.1 WSW 9 10 1008.9 - - - - - - - - -
25/08:00am 31.8 WSW 9 12 1008.7 - - - - - - - - -
25/07:30am 30.8 WSW 10 11 1008.5 - - - - - - - - -
25/07:00am 30.1 WSW 10 12 1008.5 - - - - - - - - -
25/06:30am 29.4 WSW 10 12 1008.4 - - - - - - - - -
25/06:00am 28.2 WSW 11 12 1008.2 - - - - - - - - -
25/05:30am 27.8 WSW 14 16 1007.9 - - - - - - - - -
25/05:00am 27.8 WSW 15 17 1007.5 - - - - - - - - -
25/04:30am 28.0 WSW 16 17 1007.3 - - - - - - - - -
25/04:00am 28.1 WSW 15 17 1007.3 - - - - - - - - -
25/03:30am 28.1 WSW 17 19 1007.2 - - - - - - - - -
25/03:00am 28.1 WSW 17 19 1007.1 - - - - - - - - -
25/02:30am 28.2 WSW 19 22 1007.1 - - - - - - - - -
25/02:00am 27.9 W 20 23 1007.1 - - - - - - - - -
25/01:30am 28.1 W 20 23 1007.3 - - - - - - - - -
25/01:00am 28.1 W 19 23 1007.5 - - - - - - - - -
25/12:30am 28.0 W 19 22 1007.7 - - - - - - - - -
25/12:00am 28.0 WSW 18 21 1007.9 - - - - - - - - -
 
Date/Time
WST
Temp

°C
Wind Pressure Rain
since 9am
mm
Weather Cloud Vis
km
Sea
Height
m
Swell
Dir
 
Speed
knots
Gust
knots
hPa Trend Height
m
Period
s
Dir
24/11:30pm 28.3 W 18 21 1008.3 - - - - - - - - -
24/11:00pm 28.0 W 17 19 1008.5 - - - - - - - - -
24/10:30pm 27.9 W 17 19 1008.7 - - - - - - - - -
24/10:00pm 27.9 W 17 20 1008.9 - - - - - - - - -
24/09:30pm 27.8 W 18 21 1008.7 - - - - - - - - -
24/09:00pm 27.9 W 18 21 1008.7 - - - - - - - - -
24/08:30pm 27.7 WNW 18 20 1008.6 - - - - - - - - -
24/08:00pm 27.5 WNW 16 18 1008.5 - - - - - - - - -
24/07:30pm 27.6 WNW 14 17 1008.3 - - - - - - - - -
24/07:00pm 27.7 NW 14 16 1008.0 - - - - - - - - -
24/06:30pm 28.0 WNW 15 17 1007.8 - - - - - - - - -
24/06:00pm 28.3 NW 14 16 1007.3 - - - - - - - - -
24/05:30pm 28.8 NW 14 16 1007.2 - - - - - - - - -
24/05:00pm 29.1 NW 14 16 1007.0 - - - - - - - - -
24/04:30pm 29.8 WNW 15 16 1007.0 - - - - - - - - -
24/04:00pm 31.4 WNW 14 17 1007.0 - - - - - - - - -
24/03:30pm 31.6 WNW 15 17 1007.0 - - - - - - - - -
24/03:00pm 31.6 WNW 15 17 1007.1 - - - - - - - - -
24/02:30pm 31.8 WNW 14 16 1007.4 - - - - - - - - -
24/02:00pm 32.4 WNW 14 16 1007.6 - - - - - - - - -
24/01:30pm 32.5 WNW 14 16 1007.8 - - - - - - - - -
24/01:00pm 32.5 WNW 13 16 1008.1 - - - - - - - - -
24/12:30pm 32.6 W 13 15 1008.2 - - - - - - - - -
24/12:00pm 31.9 W 13 15 1008.6 - - - - - - - - -
24/11:30am 31.6 W 12 14 1009.1 - - - - - - - - -
24/11:00am 31.7 W 11 13 1009.4 - - - - - - - - -
24/10:30am 31.9 W 12 14 1009.7 - - - - - - - - -
24/10:00am 31.5 W 13 15 1009.8 - - - - - - - - -
24/09:30am 31.7 W 13 14 1010.1 - - - - - - - - -
24/09:00am 31.3 W 13 15 1009.9 - - - - - - - - -
24/08:30am 30.6 W 13 15 1009.9 - - - - - - - - -
24/08:00am 30.1 WSW 15 17 1009.6 - - - - - - - - -
24/07:30am 29.3 WSW 15 18 1009.5 - - - - - - - - -
24/07:00am 28.7 WSW 16 17 1009.4 - - - - - - - - -
24/06:30am 27.7 W 16 17 1009.4 - - - - - - - - -
24/06:00am 27.3 W 15 17 1009.1 - - - - - - - - -
24/05:30am 26.9 W 16 17 1009.0 - - - - - - - - -
24/05:00am 26.8 W 16 17 1008.7 - - - - - - - - -
24/04:30am 27.0 W 17 18 1008.6 - - - - - - - - -
24/04:00am 27.2 W 17 19 1008.5 - - - - - - - - -
24/03:30am 27.5 W 17 19 1008.3 - - - - - - - - -
24/03:00am 27.3 W 16 18 1008.3 - - - - - - - - -
24/02:30am 27.3 W 17 19 1008.5 - - - - - - - - -
24/02:00am 27.2 W 15 17 1008.8 - - - - - - - - -
24/01:30am 27.0 W 15 17 1009.0 - - - - - - - - -
24/01:00am 27.1 W 15 17 1009.2 - - - - - - - - -
24/12:30am 27.0 W 14 16 1009.4 - - - - - - - - -
24/12:00am 27.0 W 16 18 1009.5 - - - - - - - - -
 
Date/Time
WST
Temp

°C
Wind Pressure Rain
since 9am
mm
Weather Cloud Vis
km
Sea
Height
m
Swell
Dir
 
Speed
knots
Gust
knots
hPa Trend Height
m
Period
s
Dir
23/11:30pm 27.1 W 16 17 1009.8 - - - - - - - - -
23/11:00pm 27.1 W 15 17 1010.1 - - - - - - - - -
23/10:30pm 27.0 W 14 17 1010.3 - - - - - - - - -
23/10:00pm 27.1 W 15 17 1010.4 - - - - - - - - -
23/09:30pm 27.0 W 15 17 1010.0 - - - - - - - - -
23/09:00pm 27.4 W 16 18 1009.7 - - - - - - - - -
23/08:30pm 27.4 W 15 18 1009.6 - - - - - - - - -
23/08:00pm 27.3 WNW 16 19 1009.2 - - - - - - - - -
23/07:30pm 27.4 WNW 17 19 1008.9 - - - - - - - - -
23/07:00pm 27.5 WNW 15 17 1008.8 - - - - - - - - -
23/06:30pm 27.7 WNW 16 18 1008.2 - - - - - - - - -
23/06:00pm 28.3 WNW 16 18 1008.0 - - - - - - - - -
23/05:30pm 28.4 WNW 16 19 1007.9 - - - - - - - - -
23/05:00pm 29.7 WNW 17 18 1007.7 - - - - - - - - -
23/04:30pm 29.2 WNW 15 17 1007.7 - - - - - - - - -
23/04:00pm 30.6 WNW 15 17 1007.6 - - - - - - - - -
23/03:30pm 31.1 WNW 13 16 1007.7 - - - - - - - - -
23/03:00pm 31.5 WNW 13 15 1007.9 - - - - - - - - -
23/02:30pm 31.6 WNW 12 14 1008.3 - - - - - - - - -
23/02:00pm 31.5 W 12 14 1008.2 - - - - - - - - -
23/01:30pm 31.9 WNW 12 14 1008.7 - - - - - - - - -
23/01:00pm 32.2 W 13 15 1009.0 - - - - - - - - -
23/12:30pm 31.7 W 13 15 1009.3 - - - - - - - - -

Other Formats:

Comma delimited format used in spreadsheet applications
http://www.bom.gov.au/fwo/IDW60701/IDW60701.94310.axf

JavaScript Object Notation format (JSON) in row-major order
http://www.bom.gov.au/fwo/IDW60701/IDW60701.94310.json